Latest Weather Observations for Alva Beach

IDQ60801

Issued at 1:22 pm EST Thursday 23 May 2019 (issued every 10 minutes, with the page automatically refreshed every 10 minutes)

About weather observations | Map of weather stations | Latest weather observations for QLD | Other Formats
Station Details ID: 033295 Name: ALVA BEACH Lat: -19.46 Lon: 147.48 Height: 7.5 m
Data from the previous 72 hours. | See also: Recent months at Alva Beach
Date/Time
EST
Temp
°C
App
Temp
°C
Dew
Point
°C
Rel
Hum
%
Delta-T
°C
Wind Press
QNH
hPa
Press
MSL
hPa
Rain since
9am
mm
Dir  Spd
km/h
Gust
km/h
Spd
kts
Gust
kts
23/01:00pm 26.1 24.9 18.5 63 4.8 ESE 22 35 12 19 1019.2 1019.2 0.0
23/12:30pm 26.1 25.6 19.2 65 4.4 ESE 20 33 11 18 1019.6 1019.6 0.0
23/12:00pm 25.5 24.1 18.7 66 4.3 ESE 24 33 13 18 1020.1 1020.1 0.0
23/11:30am 25.9 24.9 18.8 65 4.5 ESE 22 35 12 19 1020.5 1020.5 0.0
23/11:00am 25.7 25.5 19.3 67 4.1 ESE 19 28 10 15 1020.6 1020.6 0.0
23/10:30am 25.4 25.1 18.3 65 4.5 ESE 17 26 9 14 1021.0 1021.0 0.0
23/10:00am 25.4 25.3 17.8 62 4.8 SE 15 26 8 14 1021.2 1021.2 0.0
23/09:30am 24.9 24.9 18.1 66 4.3 SE 15 24 8 13 1021.2 1021.2 0.0
23/09:00am 24.1 24.6 18.3 70 3.6 SE 13 24 7 13 1021.1 1021.1 0.0
23/08:30am 24.0 25.4 18.6 72 3.4 SE 9 20 5 11 1020.8 1020.8 0.0
23/08:00am 22.3 23.8 18.9 81 2.1 SSE 9 15 5 8 1020.7 1020.7 0.0
23/07:30am 21.2 22.4 18.2 83 1.9 S 9 15 5 8 1020.5 1020.5 0.0
23/07:00am 20.7 21.8 17.9 84 1.7 S 9 13 5 7 1020.2 1020.2 0.0
23/06:30am 20.8 22.0 18.2 85 1.6 S 9 13 5 7 1019.8 1019.8 0.0
23/06:00am 21.0 22.2 18.2 84 1.7 S 9 15 5 8 1019.5 1019.5 0.0
23/05:30am 21.5 22.7 18.3 82 2.0 SSE 9 15 5 8 1019.2 1019.2 0.0
23/05:00am 22.0 23.1 18.0 78 2.5 SSE 9 17 5 9 1019.1 1019.1 0.0
23/04:30am 23.0 23.0 18.1 74 3.1 SE 15 28 8 15 1018.9 1018.9 0.0
23/04:00am 23.0 22.3 18.3 75 2.9 SE 19 33 10 18 1018.7 1018.7 0.0
23/03:30am 22.9 22.1 18.0 74 3.1 SE 19 30 10 16 1018.8 1018.8 0.0
23/03:00am 23.0 21.8 18.3 75 2.9 ESE 22 35 12 19 1019.1 1019.1 0.0
23/02:30am 23.2 22.0 18.3 74 3.1 ESE 22 35 12 19 1019.3 1019.3 0.0
23/02:00am 23.1 21.0 18.0 73 3.2 ESE 26 37 14 20 1019.5 1019.5 0.0
23/01:30am 23.2 21.5 18.1 73 3.2 ESE 24 39 13 21 1019.8 1019.8 0.0
23/01:00am 23.0 22.5 18.7 77 2.7 SE 19 35 10 19 1020.1 1020.1 0.0
23/12:30am 21.8 23.2 18.6 82 2.0 SSE 9 15 5 8 1020.3 1020.3 0.0
23/12:00am 21.9 23.2 18.5 81 2.1 SSE 9 15 5 8 1020.4 1020.4 0.0
 
Date/Time
EST
Temp
°C
App
Temp
°C
Dew
Point
°C
Rel
Hum
%
Delta-T
°C
Wind Press
QNH
hPa
Press
MSL
hPa
Rain since
9am
mm
Dir  Spd
km/h
Gust
km/h
Spd
kts
Gust
kts
22/11:30pm 22.1 23.5 18.7 81 2.1 SE 9 19 5 10 1020.7 1020.7 0.0
22/11:00pm 22.1 23.3 18.3 79 2.4 SSE 9 20 5 11 1020.9 1020.9 0.0
22/10:30pm 22.4 21.5 19.0 81 2.2 ESE 22 35 12 19 1020.9 1020.9 0.0
22/10:00pm 22.2 21.2 18.8 81 2.1 ESE 22 35 12 19 1020.9 1020.9 0.0
22/09:30pm 22.1 19.9 18.7 81 2.1 ESE 28 41 15 22 1021.0 1021.0 0.0
22/09:00pm 22.1 20.1 19.1 83 1.9 ESE 28 41 15 22 1021.1 1021.1 0.0
22/08:30pm 22.3 19.4 18.9 81 2.1 ESE 32 50 17 27 1020.8 1020.8 0.0
22/08:19pm 22.4 19.6 19.0 81 2.2 ESE 32 50 17 27 1020.7 1020.7 0.0
22/08:00pm 22.7 21.2 19.5 82 2.0 ESE 26 37 14 20 1020.4 1020.4 0.0
22/07:30pm 22.8 22.5 19.6 82 2.0 ESE 20 32 11 17 1020.3 1020.3 0.0
22/07:00pm 22.6 21.6 19.6 83 1.9 ESE 24 39 13 21 1020.0 1020.0 0.0
22/06:30pm 22.2 20.5 19.0 82 2.0 ESE 26 39 14 21 1019.6 1019.6 0.0
22/06:00pm 22.5 20.9 20.0 86 1.6 ESE 28 41 15 22 1019.3 1019.3 0.0
22/05:30pm 23.2 20.8 20.0 82 2.1 E 32 44 17 24 1019.0 1019.0 0.0
22/05:00pm 23.5 22.9 21.2 87 1.5 E 26 35 14 19 1019.0 1019.0 0.0
22/04:30pm 25.0 23.5 19.4 71 3.6 E 26 37 14 20 1018.7 1018.7 0.0
22/04:00pm 25.0 24.4 19.8 73 3.4 E 22 32 12 17 1018.7 1018.7 0.0
22/03:30pm 25.8 25.4 20.1 71 3.7 ESE 22 32 12 17 1018.7 1018.7 0.0
22/03:00pm 26.0 26.2 20.6 72 3.5 ESE 20 35 11 19 1018.7 1018.7 0.0
22/02:30pm 25.2 24.3 19.8 72 3.5 ESE 24 37 13 20 1018.7 1018.7 0.0
22/02:00pm 26.4 25.6 20.0 68 4.2 ESE 24 37 13 20 1018.7 1018.7 0.0
22/01:30pm 26.5 25.6 19.9 67 4.3 ESE 24 35 13 19 1018.8 1018.8 0.0
22/01:00pm 26.6 26.6 20.2 68 4.2 ESE 20 32 11 17 1019.2 1019.2 0.0
22/12:30pm 26.2 25.5 19.6 67 4.3 ESE 22 35 12 19 1019.7 1019.7 0.0
22/12:00pm 26.0 25.5 19.9 69 4.0 ESE 22 33 12 18 1020.4 1020.4 0.0
22/11:30am 25.6 24.3 19.0 67 4.2 ESE 24 35 13 19 1020.8 1020.8 0.0
22/11:00am 25.8 25.0 19.2 67 4.2 ESE 22 33 12 18 1021.1 1021.1 0.0
22/10:30am 25.1 25.0 18.8 68 4.0 ESE 17 26 9 14 1021.4 1021.4 0.0
22/10:00am 24.9 25.0 18.4 67 4.1 SE 15 32 8 17 1021.7 1021.7 0.0
22/09:30am 24.7 25.2 18.4 68 4.0 SE 13 24 7 13 1021.7 1021.7 0.0
22/09:00am 23.0 23.2 17.7 72 3.3 SSE 13 20 7 11 1021.6 1021.6 0.0
22/08:30am 21.9 22.6 17.9 78 2.5 S 11 20 6 11 1021.4 1021.4 0.0
22/08:00am 20.6 21.2 17.6 83 1.8 SSW 11 19 6 10 1021.1 1021.1 0.0
22/07:30am 19.3 20.0 17.1 87 1.3 SSW 9 13 5 7 1020.9 1020.9 0.0
22/07:00am 18.7 19.4 17.0 90 1.0 SSW 9 13 5 7 1020.5 1020.5 0.0
22/06:30am 18.5 19.1 16.7 89 1.1 S 9 13 5 7 1020.1 1020.1 0.0
22/06:00am 18.8 19.4 16.8 88 1.2 S 9 15 5 8 1019.8 1019.8 0.0
22/05:30am 19.2 19.8 16.8 86 1.4 SSW 9 13 5 7 1019.5 1019.5 0.0
22/05:00am 20.5 20.7 16.7 79 2.3 S 11 28 6 15 1019.5 1019.5 0.0
22/04:30am 22.4 21.4 17.5 74 3.0 SE 19 32 10 17 1019.5 1019.5 0.0
22/04:00am 22.6 21.9 18.2 76 2.7 SE 19 35 10 19 1019.6 1019.6 0.0
22/03:30am 22.7 21.7 18.0 75 2.9 ESE 20 33 11 18 1019.4 1019.4 0.0
22/03:00am 22.8 20.7 18.1 75 2.9 ESE 26 39 14 21 1019.2 1019.2 0.0
22/02:30am 22.8 21.6 18.3 76 2.8 ESE 22 39 12 21 1019.4 1019.4 0.0
22/02:00am 22.9 21.2 18.2 75 2.9 ESE 24 39 13 21 1019.4 1019.4 0.0
22/01:30am 23.1 21.5 18.4 75 3.0 ESE 24 43 13 23 1019.8 1019.8 0.0
22/01:00am 23.0 21.4 18.3 75 2.9 ESE 24 33 13 18 1020.0 1020.0 0.0
22/12:30am 22.9 22.4 19.1 79 2.4 ESE 20 33 11 18 1020.2 1020.2 0.0
22/12:00am 22.8 21.9 19.0 79 2.4 ESE 22 37 12 20 1020.3 1020.3 0.0
 
Date/Time
EST
Temp
°C
App
Temp
°C
Dew
Point
°C
Rel
Hum
%
Delta-T
°C
Wind Press
QNH
hPa
Press
MSL
hPa
Rain since
9am
mm
Dir  Spd
km/h
Gust
km/h
Spd
kts
Gust
kts
21/11:30pm 23.0 21.4 19.2 79 2.4 ESE 26 41 14 22 1020.3 1020.3 0.0
21/11:00pm 23.1 21.5 19.1 78 2.5 ESE 26 39 14 21 1020.6 1020.6 0.0
21/10:30pm 23.1 22.1 18.8 77 2.7 SE 22 35 12 19 1020.5 1020.5 0.0
21/10:00pm 23.1 21.2 18.6 76 2.8 ESE 26 39 14 21 1020.4 1020.4 0.0
21/09:30pm 23.2 22.3 18.1 73 3.2 SE 20 33 11 18 1020.4 1020.4 0.0
21/09:00pm 23.4 22.0 18.7 75 3.0 ESE 24 35 13 19 1020.4 1020.4 0.0
21/08:30pm 23.4 22.0 18.7 75 3.0 ESE 24 35 13 19 1020.4 1020.4 0.0
21/08:00pm 23.6 22.0 18.3 72 3.3 ESE 24 33 13 18 1020.3 1020.3 0.0
21/07:30pm 23.7 23.1 18.4 72 3.3 ESE 19 33 10 18 1019.8 1019.8 0.0
21/07:00pm 24.0 22.8 19.3 75 3.0 ESE 24 39 13 21 1019.5 1019.5 0.0
21/06:30pm 24.0 23.1 19.1 74 3.1 ESE 22 33 12 18 1019.2 1019.2 0.0
21/06:00pm 24.1 23.2 19.8 77 2.8 ESE 24 37 13 20 1018.9 1018.9 0.0
21/05:30pm 24.2 23.0 19.3 74 3.1 ESE 24 37 13 20 1018.5 1018.5 0.0
21/05:00pm 24.5 23.8 19.6 74 3.1 ESE 22 37 12 20 1018.1 1018.1 0.0
21/04:30pm 24.9 23.8 19.5 72 3.5 ESE 24 35 13 19 1017.8 1017.8 0.0
21/04:00pm 24.9 24.6 19.5 72 3.5 ESE 20 30 11 16 1017.7 1017.7 0.0
21/03:30pm 25.0 23.6 18.9 69 3.9 ESE 24 39 13 21 1017.6 1017.6 0.0
21/03:00pm 25.3 24.5 19.2 69 3.9 ESE 22 33 12 18 1017.6 1017.6 0.0
21/02:30pm 26.2 24.9 19.8 68 4.2 ESE 26 37 14 20 1017.6 1017.6 0.0
21/02:00pm 25.9 24.3 19.3 67 4.2 ESE 26 37 14 20 1017.9 1017.9 0.0
21/01:30pm 26.3 25.4 19.9 68 4.2 ESE 24 37 13 20 1018.2 1018.2 0.0
21/01:00pm 26.0 24.0 19.2 66 4.4 ESE 28 43 15 23 1018.6 1018.6 0.0
21/12:30pm 26.1 24.6 19.5 67 4.3 ESE 26 39 14 21 1018.9 1018.9 0.0
21/12:00pm 24.9 23.3 19.1 70 3.7 ESE 26 35 14 19 1019.3 1019.3 0.0
21/11:30am 25.9 24.6 19.1 66 4.4 ESE 24 35 13 19 1019.7 1019.7 0.0
21/11:00am 25.2 25.0 18.6 67 4.2 SE 17 30 9 16 1019.7 1019.7 0.0
21/10:30am 24.5 23.9 18.4 69 3.9 SE 19 32 10 17 1020.0 1020.0 0.0
21/10:00am 24.6 24.6 19.0 71 3.6 ESE 17 28 9 15 1020.2 1020.2 0.0
21/09:30am 24.4 24.8 19.0 72 3.4 ESE 15 24 8 13 1020.2 1020.2 0.0
21/09:00am 23.1 24.2 18.8 77 2.7 SE 11 24 6 13 1020.1 1020.1 0.0
21/08:30am 22.0 22.5 18.4 80 2.3 SE 13 22 7 12 1020.0 1020.0 0.0
21/08:00am 21.2 22.0 18.2 83 1.9 SE 11 19 6 10 1019.7 1019.7 0.0
21/07:30am 19.7 20.5 17.3 86 1.5 SSE 9 17 5 9 1019.6 1019.6 0.0
21/07:00am 18.8 19.4 16.9 89 1.1 SSW 9 13 5 7 1019.3 1019.3 0.0
21/06:30am 18.8 19.4 16.8 88 1.2 S 9 15 5 8 1019.2 1019.2 0.0
21/06:00am 19.1 19.9 17.2 89 1.2 SSW 9 13 5 7 1018.8 1018.8 0.0
21/05:30am 19.2 20.2 16.8 86 1.4 SSW 7 9 4 5 1018.6 1018.6 0.0
21/05:00am 20.5 21.1 17.7 84 1.7 SSE 11 17 6 9 1018.2 1018.2 0.0
21/04:30am 20.5 21.2 17.9 85 1.6 SE 11 22 6 12 1018.1 1018.1 0.0
21/04:00am 19.1 19.9 17.2 89 1.2 S 9 11 5 6 1018.2 1018.2 0.0
21/03:30am 19.1 19.7 16.9 87 1.3 S 9 11 5 6 1018.2 1018.2 0.0
21/03:00am 19.4 20.3 16.6 84 1.7 S 7 13 4 7 1018.3 1018.3 0.0
21/02:30am 19.7 20.3 16.9 84 1.7 SSE 9 15 5 8 1018.5 1018.5 0.0
21/02:00am 20.0 20.7 17.0 83 1.8 SSE 9 15 5 8 1018.7 1018.7 0.0
21/01:30am 20.1 20.8 17.1 83 1.8 SSE 9 13 5 7 1018.9 1018.9 0.0
21/01:00am 20.2 20.9 17.0 82 1.9 S 9 13 5 7 1019.2 1019.2 0.0
21/12:30am 21.1 21.7 16.9 77 2.6 SSE 9 22 5 12 1019.4 1019.4 0.0
21/12:00am 21.6 22.1 17.4 77 2.6 SE 11 20 6 11 1019.8 1019.8 0.0
 
Date/Time
EST
Temp
°C
App
Temp
°C
Dew
Point
°C
Rel
Hum
%
Delta-T
°C
Wind Press
QNH
hPa
Press
MSL
hPa
Rain since
9am
mm
Dir  Spd
km/h
Gust
km/h
Spd
kts
Gust
kts
20/11:30pm 21.6 22.4 17.4 77 2.6 SSE 9 20 5 11 1020.0 1020.0 0.0
20/11:00pm 22.6 21.7 18.2 76 2.7 SE 20 39 11 21 1020.0 1020.0 0.0
20/10:30pm 22.9 21.5 18.7 77 2.7 ESE 24 37 13 20 1020.1 1020.1 0.0
20/10:00pm 22.7 21.6 18.7 78 2.5 ESE 22 33 12 18 1020.2 1020.2 0.0
20/09:30pm 22.9 22.1 19.3 80 2.3 ESE 22 39 12 21 1020.0 1020.0 0.0
20/09:00pm 23.0 22.3 19.6 81 2.2 ESE 22 39 12 21 1020.0 1020.0 0.0
20/08:30pm 23.2 22.5 19.4 79 2.4 ESE 22 33 12 18 1019.9 1019.9 0.0
20/08:00pm 23.3 22.1 19.2 78 2.6 ESE 24 39 13 21 1019.6 1019.6 0.0
20/07:30pm 23.4 22.4 18.9 76 2.9 ESE 22 32 12 17 1019.4 1019.4 0.0
20/07:00pm 23.5 22.9 18.8 75 3.0 ESE 20 32 11 17 1018.9 1018.9 0.0
20/06:30pm 23.6 23.4 19.3 77 2.7 ESE 19 30 10 16 1018.7 1018.7 0.0
20/06:00pm 23.5 23.1 19.0 76 2.9 E 19 26 10 14 1018.6 1018.6 0.0
20/05:30pm 23.8 22.8 18.9 74 3.1 E 22 32 12 17 1018.4 1018.4 0.0
20/05:00pm 24.2 23.4 19.3 74 3.1 E 22 33 12 18 1018.2 1018.2 0.0
20/04:30pm 24.8 23.7 18.7 69 3.9 E 22 32 12 17 1018.0 1018.0 0.0
20/04:00pm 25.5 24.8 19.6 70 3.8 E 22 32 12 17 1017.9 1017.9 0.0
20/03:30pm 25.5 24.8 19.4 69 3.9 E 22 33 12 18 1018.0 1018.0 0.0
20/03:00pm 25.8 25.1 18.7 65 4.5 E 20 32 11 17 1018.2 1018.2 0.0
20/02:30pm 26.6 25.5 18.7 62 5.0 E 22 32 12 17 1018.3 1018.3 0.0
20/02:00pm 26.5 25.8 18.6 62 5.0 ESE 20 33 11 18 1018.5 1018.5 0.0
20/01:30pm 26.0 24.4 18.4 63 4.8 ESE 24 37 13 20 1018.7 1018.7 0.0

Other formats

Comma delimited format used in spreadsheet applications
http://www.bom.gov.au/fwo/IDQ60801/IDQ60801.95296.axf

JavaScript Object Notation format (JSON) in row-major order
http://www.bom.gov.au/fwo/IDQ60801/IDQ60801.95296.json

Data quality

Most of these data are generated automatically and are frequently updated. Quality checks on data are not normally performed. It is possible for incorrect values to appear. Refer to information at About Latest Weather Observations and please check the disclaimer before using these data.